Time;durP1;ratioP1;P1;durP2;ratioP2;P2;SDS_P1;SDS_P2;PMS_P1;PMS_P2;Temp;Humidity;BMP_temperature;BMP_pressure;BME280_temperature;BME280_humidity;BME280_pressure;Samples;Min_cycle;Max_cycle;Signal;HPM_P1;HPM_P2
2024/04/04 00:00:21;;;;;;;4.10;0.95;;;9.00;99.90;;;;;;5007499;28;20018;-59
2024/04/04 00:02:48;;;;;;;4.13;1.00;;;9.00;99.90;;;;;;5006454;28;20034;-59
2024/04/04 00:05:14;;;;;;;10.20;1.35;;;9.00;99.90;;;;;;5006853;28;20108;-58
2024/04/04 00:07:39;;;;;;;5.55;1.50;;;9.00;99.90;;;;;;5007389;28;20152;-59
2024/04/04 00:10:05;;;;;;;5.97;1.42;;;9.10;99.90;;;;;;5012085;28;20021;-58
2024/04/04 00:12:31;;;;;;;4.22;1.20;;;9.10;99.90;;;;;;5002711;28;20030;-59
2024/04/04 00:14:56;;;;;;;6.43;1.23;;;9.10;99.90;;;;;;5010859;28;20049;-58
2024/04/04 00:17:22;;;;;;;4.95;0.98;;;9.00;99.90;;;;;;5007178;28;20065;-58
2024/04/04 00:19:48;;;;;;;4.45;1.20;;;9.00;99.90;;;;;;5006492;28;20026;-59
2024/04/04 00:22:13;;;;;;;15.10;1.40;;;9.10;99.90;;;;;;5005701;28;20041;-59
2024/04/04 00:24:39;;;;;;;6.05;1.27;;;9.10;99.90;;;;;;5008977;28;20030;-58
2024/04/04 00:27:05;;;;;;;4.68;1.10;;;9.20;99.90;;;;;;5011004;28;20029;-58
2024/04/04 00:29:31;;;;;;;5.63;1.13;;;9.10;99.90;;;;;;5006775;28;20034;-58
2024/04/04 00:31:56;;;;;;;4.05;1.20;;;8.90;99.90;;;;;;5008233;28;20040;-59
2024/04/04 00:34:22;;;;;;;8.80;1.73;;;8.90;99.90;;;;;;5003657;28;20034;-59
2024/04/04 00:36:48;;;;;;;3.20;1.00;;;8.90;99.90;;;;;;5010280;28;20080;-59
2024/04/04 00:39:14;;;;;;;10.38;1.30;;;9.00;99.90;;;;;;5002523;28;20384;-58
2024/04/04 00:41:40;;;;;;;4.63;1.10;;;9.00;99.90;;;;;;5011642;28;20076;-58
2024/04/04 00:44:06;;;;;;;4.15;1.10;;;9.00;99.90;;;;;;5007620;28;20432;-58
2024/04/04 00:46:33;;;;;;;6.65;1.10;;;8.90;99.90;;;;;;5006929;28;20099;-58
2024/04/04 00:49:01;;;;;;;4.40;1.20;;;8.90;99.90;;;;;;5005824;28;20392;-59
2024/04/04 00:51:27;;;;;;;14.25;1.98;;;8.90;99.90;;;;;;5004938;28;20033;-58
2024/04/04 00:53:54;;;;;;;3.28;1.40;;;8.90;99.90;;;;;;5009373;28;20711;-59
2024/04/04 00:56:20;;;;;;;5.35;1.27;;;8.80;99.90;;;;;;5003801;28;20030;-58
2024/04/04 00:58:49;;;;;;;6.88;1.67;;;8.80;99.90;;;;;;5007316;28;21510;-59
2024/04/04 01:01:15;;;;;;;5.70;1.38;;;8.80;99.90;;;;;;5006903;28;20026;-60
2024/04/04 01:03:41;;;;;;;6.32;1.30;;;8.80;99.90;;;;;;5003997;28;20018;-59
2024/04/04 01:06:07;;;;;;;4.97;1.48;;;8.70;99.90;;;;;;5014118;28;20044;-59
2024/04/04 01:08:35;;;;;;;13.98;1.77;;;8.70;99.90;;;;;;5006251;28;20904;-59
2024/04/04 01:11:03;;;;;;;5.13;1.10;;;8.60;99.90;;;;;;5007040;28;20116;-59
2024/04/04 01:13:29;;;;;;;5.60;1.20;;;8.60;99.90;;;;;;5004782;28;20065;-60
2024/04/04 01:15:54;;;;;;;3.53;1.10;;;8.50;99.90;;;;;;5004827;28;20084;-59
2024/04/04 01:18:20;;;;;;;5.03;1.30;;;8.50;99.90;;;;;;5004916;28;20029;-59
2024/04/04 01:20:46;;;;;;;9.63;1.45;;;8.60;99.90;;;;;;5007184;28;20033;-60
2024/04/04 01:23:12;;;;;;;5.55;1.30;;;8.70;99.90;;;;;;5007571;28;20049;-60
2024/04/04 01:25:40;;;;;;;6.63;1.30;;;8.70;99.90;;;;;;5006999;28;20026;-59
2024/04/04 01:28:06;;;;;;;6.72;1.33;;;8.70;99.90;;;;;;5003978;28;20453;-59
2024/04/04 01:30:31;;;;;;;9.02;1.63;;;8.70;99.90;;;;;;5005080;28;20099;-59
2024/04/04 01:32:57;;;;;;;6.50;1.65;;;8.70;99.90;;;;;;5006513;28;20064;-59
2024/04/04 01:35:23;;;;;;;11.20;1.30;;;8.70;99.90;;;;;;5003463;28;20497;-59
2024/04/04 01:37:48;;;;;;;6.25;1.40;;;8.70;99.90;;;;;;5002547;28;20038;-59
2024/04/04 01:40:14;;;;;;;4.80;1.20;;;8.70;99.90;;;;;;5002304;28;20033;-60
2024/04/04 01:42:39;;;;;;;4.90;1.42;;;8.70;99.90;;;;;;5004921;28;20037;-60
2024/04/04 01:45:05;;;;;;;5.65;1.77;;;8.70;99.90;;;;;;5004980;28;20043;-59
2024/04/04 01:47:31;;;;;;;5.70;1.58;;;8.70;99.90;;;;;;5003677;28;20035;-59
2024/04/04 01:49:56;;;;;;;7.80;1.50;;;8.70;99.90;;;;;;5006304;28;20030;-59
2024/04/04 01:52:22;;;;;;;10.55;1.23;;;;;;;;;;5002569;28;20660;-60
2024/04/04 01:54:49;;;;;;;6.15;1.20;;;8.80;99.90;;;;;;5003580;28;20049;-59
2024/04/04 01:57:14;;;;;;;6.18;1.25;;;8.90;99.90;;;;;;5006500;28;20473;-59
2024/04/04 01:59:40;;;;;;;11.10;1.20;;;9.00;99.90;;;;;;5006085;28;20477;-59
2024/04/04 02:02:06;;;;;;;6.15;1.20;;;9.00;99.90;;;;;;5006954;28;20034;-60
2024/04/04 02:04:31;;;;;;;9.20;1.50;;;9.10;99.90;;;;;;5008542;28;20084;-59
2024/04/04 02:06:57;;;;;;;7.70;1.60;;;9.10;99.90;;;;;;5006485;28;20839;-59
2024/04/04 02:09:28;;;;;;;5.70;1.10;;;9.10;99.90;;;;;;5005285;28;20042;-60
2024/04/04 02:11:54;;;;;;;5.75;1.23;;;9.10;99.90;;;;;;5003327;28;20034;-60
2024/04/04 02:14:20;;;;;;;5.10;1.00;;;9.10;99.90;;;;;;5004779;28;20037;-60
2024/04/04 02:16:48;;;;;;;4.03;1.02;;;9.10;99.90;;;;;;5003016;28;20109;-60
2024/04/04 02:19:14;;;;;;;3.60;0.90;;;9.10;99.90;;;;;;5005561;28;20030;-60
2024/04/04 02:21:40;;;;;;;7.05;1.30;;;9.20;99.90;;;;;;5008465;28;20033;-60
2024/04/04 02:24:07;;;;;;;6.03;1.42;;;9.30;99.90;;;;;;5006178;28;20523;-60
2024/04/04 02:26:33;;;;;;;2.78;1.13;;;9.30;99.90;;;;;;5003379;28;20034;-60
2024/04/04 02:28:59;;;;;;;8.70;1.60;;;9.30;99.90;;;;;;5006168;28;20636;-60
2024/04/04 02:31:25;;;;;;;5.13;1.77;;;9.30;99.90;;;;;;5005396;28;20492;-60
2024/04/04 02:33:51;;;;;;;8.77;1.67;;;9.30;99.90;;;;;;5006350;28;20061;-61
2024/04/04 02:36:16;;;;;;;5.03;1.40;;;9.20;99.90;;;;;;5004003;28;20046;-60
2024/04/04 02:38:42;;;;;;;6.70;1.55;;;9.30;99.90;;;;;;5001042;28;20505;-60
2024/04/04 02:41:08;;;;;;;7.07;1.50;;;9.20;99.90;;;;;;5007039;28;20037;-60
2024/04/04 02:43:34;;;;;;;5.72;1.23;;;9.20;99.90;;;;;;5005414;28;20029;-60
2024/04/04 02:46:01;;;;;;;8.55;1.50;;;9.10;99.90;;;;;;5005486;28;20030;-60
2024/04/04 02:48:30;;;;;;;4.30;1.40;;;9.10;99.90;;;;;;5001995;28;20018;-60
2024/04/04 02:50:57;;;;;;;7.07;1.50;;;9.20;99.90;;;;;;5023623;28;20022;-60
2024/04/04 02:53:23;;;;;;;6.35;1.40;;;9.40;99.90;;;;;;5007658;28;20484;-60
2024/04/04 02:55:54;;;;;;;4.55;1.20;;;9.30;99.90;;;;;;5005302;28;20065;-61
2024/04/04 02:58:20;;;;;;;4.53;1.20;;;9.30;99.90;;;;;;5006156;28;20021;-60
2024/04/04 03:00:49;;;;;;;6.10;1.52;;;9.30;99.90;;;;;;5002702;28;20397;-61
2024/04/04 03:03:15;;;;;;;4.00;1.48;;;9.40;99.90;;;;;;5006986;28;20053;-61
2024/04/04 03:05:41;;;;;;;3.80;1.13;;;9.40;99.90;;;;;;5007540;28;20078;-61
2024/04/04 03:08:08;;;;;;;4.93;1.42;;;9.50;99.90;;;;;;5002831;28;20034;-60
2024/04/04 03:10:34;;;;;;;4.95;1.35;;;9.60;99.90;;;;;;5001125;28;20649;-60
2024/04/04 03:13:01;;;;;;;3.30;1.30;;;9.60;99.90;;;;;;5005126;28;20034;-60
2024/04/04 03:15:26;;;;;;;3.42;1.20;;;9.70;99.90;;;;;;5003120;28;20113;-60
2024/04/04 03:17:52;;;;;;;7.95;1.20;;;9.70;99.90;;;;;;5005681;28;20192;-60
2024/04/04 03:20:17;;;;;;;4.95;1.20;;;9.80;99.90;;;;;;5003575;28;20026;-58
2024/04/04 03:22:43;;;;;;;3.40;1.10;;;9.80;99.90;;;;;;5006476;28;20035;-59
2024/04/04 03:25:08;;;;;;;4.40;1.35;;;9.80;99.90;;;;;;5007197;28;20068;-59
2024/04/04 03:27:34;;;;;;;3.50;1.10;;;9.90;99.90;;;;;;5005555;28;20117;-58
2024/04/04 03:30:00;;;;;;;6.95;1.40;;;9.90;99.90;;;;;;5005263;28;20598;-59
2024/04/04 03:32:28;;;;;;;6.82;1.52;;;10.00;99.90;;;;;;5004133;28;20048;-59
2024/04/04 03:34:53;;;;;;;6.18;1.52;;;10.00;99.90;;;;;;5005747;28;20026;-59
2024/04/04 03:37:19;;;;;;;6.38;1.60;;;10.00;99.90;;;;;;5004581;28;20080;-59
2024/04/04 03:39:48;;;;;;;3.90;1.20;;;10.00;99.90;;;;;;5004487;28;20723;-58
2024/04/04 03:42:13;;;;;;;4.00;1.10;;;10.00;99.90;;;;;;5006006;28;20030;-59
2024/04/04 03:44:39;;;;;;;4.80;1.33;;;10.00;99.90;;;;;;5005588;28;20030;-59
2024/04/04 03:47:04;;;;;;;3.70;1.25;;;9.90;99.90;;;;;;5004757;28;20109;-59
2024/04/04 03:49:33;;;;;;;8.85;1.40;;;10.00;99.90;;;;;;5005508;28;20026;-59
2024/04/04 03:51:58;;;;;;;5.50;1.35;;;9.90;99.90;;;;;;5003920;28;20031;-59
2024/04/04 03:54:24;;;;;;;9.13;1.50;;;9.90;99.90;;;;;;5005211;28;20104;-58
2024/04/04 03:56:49;;;;;;;5.10;1.23;;;9.80;99.90;;;;;;5007060;28;20033;-58
2024/04/04 03:59:15;;;;;;;5.47;1.50;;;9.90;99.90;;;;;;5003372;28;20026;-59
2024/04/04 04:01:41;;;;;;;8.18;1.60;;;9.80;99.90;;;;;;5008827;28;20026;-58
2024/04/04 04:04:06;;;;;;;5.00;1.48;;;9.60;99.90;;;;;;5013328;28;20033;-58
2024/04/04 04:06:32;;;;;;;7.25;1.70;;;9.60;99.90;;;;;;5009571;28;20661;-58
2024/04/04 04:08:57;;;;;;;7.43;1.38;;;9.40;99.90;;;;;;5007956;28;20041;-58
2024/04/04 04:11:23;;;;;;;5.63;1.63;;;9.50;99.90;;;;;;5010991;28;20358;-58
2024/04/04 04:13:49;;;;;;;4.30;1.75;;;9.50;99.90;;;;;;5006283;28;20033;-58
2024/04/04 04:16:14;;;;;;;10.80;1.80;;;9.40;99.90;;;;;;5010950;28;20485;-58
2024/04/04 04:18:41;;;;;;;3.65;1.45;;;9.40;99.90;;;;;;5009360;28;20022;-58
2024/04/04 04:21:21;;;;;;;6.93;1.65;;;9.40;99.90;;;;;;5010164;28;20041;-58
2024/04/04 04:23:57;;;;;;;7.53;1.73;;;9.40;99.90;;;;;;5009684;28;20030;-58
2024/04/04 04:26:23;;;;;;;5.15;1.65;;;9.40;99.90;;;;;;5010292;28;20030;-58
2024/04/04 04:28:49;;;;;;;7.43;1.98;;;9.40;99.90;;;;;;5006213;28;20018;-58
2024/04/04 04:31:27;;;;;;;5.50;1.80;;;9.40;99.90;;;;;;5003532;28;21271;-58
2024/04/04 04:33:54;;;;;;;6.07;2.22;;;9.40;99.90;;;;;;5002562;28;20485;-58
2024/04/04 04:36:24;;;;;;;7.03;2.17;;;9.50;99.90;;;;;;5004509;28;20049;-59
2024/04/04 04:38:50;;;;;;;7.57;2.42;;;9.40;99.90;;;;;;5003141;28;20032;-58
2024/04/04 04:41:15;;;;;;;5.57;1.85;;;9.50;99.90;;;;;;5008932;28;20454;-59
2024/04/04 04:43:44;;;;;;;6.95;2.20;;;9.40;99.90;;;;;;5003466;28;20085;-58
2024/04/04 04:46:12;;;;;;;7.05;2.42;;;9.40;99.90;;;;;;5007538;28;20026;-59
2024/04/04 04:48:38;;;;;;;6.45;2.30;;;9.40;99.90;;;;;;5005509;28;20030;-58
2024/04/04 04:51:06;;;;;;;10.65;3.00;;;9.40;99.90;;;;;;5001020;28;20026;-60
2024/04/04 04:53:32;;;;;;;8.77;2.72;;;9.40;99.90;;;;;;5007135;28;20064;-58
2024/04/04 04:55:57;;;;;;;10.02;2.50;;;9.30;99.90;;;;;;5003250;28;20031;-58
2024/04/04 04:58:23;;;;;;;5.93;2.20;;;9.40;99.90;;;;;;5003390;28;20073;-58
2024/04/04 05:00:52;;;;;;;7.63;3.13;;;9.30;99.90;;;;;;5007800;28;20037;-58
2024/04/04 05:03:21;;;;;;;8.07;2.30;;;9.30;99.90;;;;;;5001365;28;20053;-58
2024/04/04 05:05:46;;;;;;;11.43;2.78;;;9.40;99.90;;;;;;5008746;28;20053;-58
2024/04/04 05:08:12;;;;;;;9.25;2.60;;;9.40;99.90;;;;;;5005738;28;20060;-58
2024/04/04 05:10:38;;;;;;;4.82;1.80;;;9.30;99.90;;;;;;5009377;28;20034;-58
2024/04/04 05:13:04;;;;;;;10.20;2.50;;;9.30;99.90;;;;;;5006090;28;20021;-58
2024/04/04 05:15:30;;;;;;;6.50;2.35;;;9.40;99.90;;;;;;5003623;28;20030;-58
2024/04/04 05:17:56;;;;;;;6.40;2.50;;;9.40;99.90;;;;;;5006544;28;20462;-58
2024/04/04 05:20:21;;;;;;;7.38;2.10;;;9.40;99.90;;;;;;5001287;28;20450;-57
2024/04/04 05:22:47;;;;;;;14.27;2.78;;;9.40;99.90;;;;;;5011582;28;20445;-59
2024/04/04 05:25:15;;;;;;;5.78;2.30;;;9.40;99.90;;;;;;5009367;28;20030;-58
2024/04/04 05:27:41;;;;;;;7.63;2.83;;;9.50;99.90;;;;;;5003647;28;20041;-58
2024/04/04 05:30:14;;;;;;;7.00;2.22;;;9.50;99.90;;;;;;5007841;28;20125;-58
2024/04/04 05:32:40;;;;;;;6.88;2.10;;;9.50;99.90;;;;;;5006551;28;20033;-58
2024/04/04 05:35:06;;;;;;;10.93;2.60;;;9.50;99.90;;;;;;5006654;28;20057;-58
2024/04/04 05:37:32;;;;;;;6.85;2.30;;;9.60;99.90;;;;;;5005014;28;20410;-58
2024/04/04 05:39:58;;;;;;;8.27;2.90;;;9.60;99.90;;;;;;5008820;28;20026;-58
2024/04/04 05:42:33;;;;;;;8.80;2.67;;;9.60;99.90;;;;;;5006024;28;20099;-58
2024/04/04 05:45:01;;;;;;;7.13;2.22;;;9.70;99.90;;;;;;4999338;28;20065;-59
2024/04/04 05:47:27;;;;;;;6.13;2.20;;;9.70;99.90;;;;;;5002814;28;20525;-58
2024/04/04 05:49:52;;;;;;;7.82;2.05;;;9.80;99.90;;;;;;5008140;28;20038;-58
2024/04/04 05:52:18;;;;;;;7.28;2.30;;;9.70;99.90;;;;;;5005358;28;20696;-59
2024/04/04 05:54:47;;;;;;;5.80;2.10;;;9.90;99.90;;;;;;5003667;28;20026;-58
2024/04/04 05:57:16;;;;;;;7.40;2.07;;;10.00;99.90;;;;;;5005343;28;20480;-58
2024/04/04 05:59:41;;;;;;;7.40;1.83;;;10.00;99.90;;;;;;5006724;28;20617;-58
2024/04/04 06:02:10;;;;;;;5.88;2.33;;;10.10;99.90;;;;;;5008207;28;20025;-58
2024/04/04 06:04:35;;;;;;;7.32;2.10;;;10.20;99.90;;;;;;5004638;28;20465;-58
2024/04/04 06:07:02;;;;;;;4.82;1.88;;;10.20;99.90;;;;;;5005072;28;20029;-58
2024/04/04 06:09:30;;;;;;;5.53;1.75;;;10.20;99.90;;;;;;5002942;28;20053;-58
2024/04/04 06:11:58;;;;;;;6.63;2.00;;;10.30;99.90;;;;;;5003304;28;20032;-58
2024/04/04 06:14:23;;;;;;;7.35;2.10;;;10.30;99.90;;;;;;5006921;28;20474;-58
2024/04/04 06:16:49;;;;;;;5.00;1.80;;;10.30;99.90;;;;;;5004867;28;20033;-58
2024/04/04 06:19:14;;;;;;;7.07;1.85;;;10.30;99.90;;;;;;5003262;28;20473;-58
2024/04/04 06:21:40;;;;;;;6.38;1.90;;;10.30;99.90;;;;;;5002586;28;20117;-59
2024/04/04 06:24:06;;;;;;;7.13;2.13;;;10.30;99.90;;;;;;5002646;28;20115;-58
2024/04/04 06:26:31;;;;;;;7.78;1.90;;;10.30;99.90;;;;;;5006998;28;20030;-58
2024/04/04 06:28:57;;;;;;;9.07;2.10;;;10.30;99.90;;;;;;5005991;28;20034;-58
2024/04/04 06:31:23;;;;;;;8.27;2.08;;;10.40;99.90;;;;;;5002409;28;20042;-58
2024/04/04 06:33:49;;;;;;;4.82;1.90;;;10.40;99.90;;;;;;5001446;28;20042;-58
2024/04/04 06:36:16;;;;;;;7.68;2.60;;;10.40;99.90;;;;;;5006853;28;20545;-58
2024/04/04 06:38:42;;;;;;;7.68;2.65;;;10.40;99.90;;;;;;5002088;28;20029;-58
2024/04/04 06:41:08;;;;;;;4.88;1.90;;;10.50;99.90;;;;;;5004643;28;20104;-58
2024/04/04 06:43:34;;;;;;;6.68;1.70;;;10.50;99.90;;;;;;5005601;28;20117;-58
2024/04/04 06:45:59;;;;;;;4.85;1.25;;;10.50;99.90;;;;;;5003871;28;20057;-59
2024/04/04 06:48:26;;;;;;;4.70;1.63;;;9.70;99.90;;;;;;5004616;28;20030;-58
2024/04/04 06:50:53;;;;;;;6.07;1.80;;;10.60;99.90;;;;;;5003314;28;20042;-59
2024/04/04 06:53:18;;;;;;;4.38;1.38;;;10.60;99.90;;;;;;5005353;28;20509;-58
2024/04/04 06:55:44;;;;;;;4.97;1.80;;;10.60;99.90;;;;;;5001802;28;20022;-58
2024/04/04 06:58:10;;;;;;;4.43;1.30;;;10.70;99.90;;;;;;5006154;28;20033;-59
2024/04/04 07:00:38;;;;;;;5.28;1.85;;;10.70;99.90;;;;;;5002565;28;20030;-59
2024/04/04 07:03:04;;;;;;;4.32;1.60;;;10.70;99.90;;;;;;5009044;28;20034;-59
2024/04/04 07:05:29;;;;;;;7.05;1.35;;;10.80;99.90;;;;;;5011682;28;20080;-58
2024/04/04 07:07:55;;;;;;;4.85;1.40;;;10.80;99.90;;;;;;5005779;28;20025;-60
2024/04/04 07:10:20;;;;;;;3.92;1.20;;;10.80;99.90;;;;;;5004481;28;20037;-59
2024/04/04 07:12:46;;;;;;;4.40;1.23;;;10.80;99.90;;;;;;5004234;28;21497;-58
2024/04/04 07:15:12;;;;;;;4.22;1.48;;;10.80;99.90;;;;;;5002004;28;20034;-59
2024/04/04 07:17:38;;;;;;;5.38;1.33;;;10.80;99.90;;;;;;5005619;28;20113;-59
2024/04/04 07:20:05;;;;;;;5.57;1.50;;;10.80;99.90;;;;;;5007670;28;20117;-59
2024/04/04 07:22:31;;;;;;;5.47;1.58;;;10.90;99.90;;;;;;5005314;28;20029;-59
2024/04/04 07:24:56;;;;;;;3.88;1.40;;;10.90;99.90;;;;;;5008210;28;20501;-59
2024/04/04 07:27:22;;;;;;;12.15;1.33;;;11.00;99.90;;;;;;5005758;28;20061;-59
2024/04/04 07:29:48;;;;;;;3.92;1.30;;;11.00;99.90;;;;;;5006100;28;20550;-59
2024/04/04 07:32:13;;;;;;;18.40;1.58;;;11.00;99.90;;;;;;4999302;28;20057;-59
2024/04/04 07:34:39;;;;;;;5.95;1.35;;;11.00;99.90;;;;;;5003144;28;20034;-59
2024/04/04 07:37:05;;;;;;;5.97;1.20;;;11.00;99.90;;;;;;5013551;28;20026;-59
2024/04/04 07:39:33;;;;;;;4.95;1.40;;;11.10;99.90;;;;;;5008752;28;20037;-59
2024/04/04 07:41:59;;;;;;;5.18;1.40;;;11.00;99.90;;;;;;5009411;28;20511;-59
2024/04/04 07:44:25;;;;;;;5.38;1.25;;;11.10;99.90;;;;;;5010243;28;20041;-59
2024/04/04 07:46:51;;;;;;;4.65;1.20;;;11.10;99.90;;;;;;5003796;28;20638;-59
2024/04/04 07:49:17;;;;;;;3.47;1.00;;;11.20;99.90;;;;;;5004775;28;20114;-59
2024/04/04 07:51:43;;;;;;;2.40;1.00;;;11.20;99.90;;;;;;5004287;28;20506;-59
2024/04/04 07:54:09;;;;;;;3.85;1.10;;;11.20;99.90;;;;;;5009884;28;20038;-59
2024/04/04 07:56:35;;;;;;;4.32;1.20;;;11.20;99.90;;;;;;5008980;28;20066;-59
2024/04/04 07:59:02;;;;;;;3.28;1.02;;;11.30;99.90;;;;;;5010226;28;20105;-59
2024/04/04 08:01:28;;;;;;;2.97;1.00;;;11.30;99.90;;;;;;5006322;28;20030;-61
2024/04/04 08:03:53;;;;;;;2.53;0.93;;;11.20;99.90;;;;;;5012901;28;20036;-61
2024/04/04 08:06:19;;;;;;;3.63;1.30;;;11.30;99.90;;;;;;5008066;28;20037;-61
2024/04/04 08:08:45;;;;;;;3.25;1.00;;;11.40;99.90;;;;;;5007414;28;20470;-61
2024/04/04 08:11:15;;;;;;;2.13;0.90;;;11.40;99.90;;;;;;5005387;28;20018;-62
2024/04/04 08:13:44;;;;;;;2.40;0.80;;;11.40;99.90;;;;;;5006376;28;20036;-61
2024/04/04 08:16:10;;;;;;;1.90;0.82;;;11.40;99.90;;;;;;5004522;28;20038;-61
2024/04/04 08:18:37;;;;;;;1.83;0.80;;;11.40;99.90;;;;;;5004027;28;20023;-62
2024/04/04 08:21:02;;;;;;;3.63;1.00;;;11.50;99.90;;;;;;5006626;28;20049;-61
2024/04/04 08:23:30;;;;;;;5.65;0.93;;;11.50;99.90;;;;;;5005211;28;20037;-62
2024/04/04 08:25:59;;;;;;;1.50;0.70;;;11.60;99.90;;;;;;5006654;28;20030;-61
2024/04/04 08:28:25;;;;;;;1.50;0.80;;;11.60;99.90;;;;;;5005515;28;20373;-61
2024/04/04 08:30:58;;;;;;;3.50;1.00;;;11.60;99.90;;;;;;5003104;28;20030;-62
2024/04/04 08:33:24;;;;;;;2.13;1.00;;;11.60;99.90;;;;;;5001016;28;20087;-62
2024/04/04 08:35:51;;;;;;;3.35;1.00;;;11.60;99.90;;;;;;5006903;28;20053;-62
2024/04/04 08:38:16;;;;;;;4.88;1.20;;;11.60;99.90;;;;;;5010020;28;20436;-62
2024/04/04 08:40:42;;;;;;;1.85;0.80;;;11.60;99.90;;;;;;5004216;28;20080;-61
2024/04/04 08:43:09;;;;;;;2.28;0.90;;;11.60;99.90;;;;;;5005072;28;20361;-61
2024/04/04 08:45:49;;;;;;;2.38;0.90;;;11.50;99.90;;;;;;5008065;28;20025;-61
2024/04/04 08:48:16;;;;;;;7.32;0.95;;;11.40;99.90;;;;;;5003147;28;20610;-61
2024/04/04 08:50:48;;;;;;;1.85;0.88;;;11.40;99.90;;;;;;5003431;28;20709;-61
2024/04/04 08:53:22;;;;;;;3.25;0.73;;;11.40;99.90;;;;;;5009183;28;20037;-62
2024/04/04 08:55:50;;;;;;;5.60;1.10;;;11.40;99.90;;;;;;5005064;28;20111;-62
2024/04/04 08:58:17;;;;;;;2.20;1.00;;;11.40;99.90;;;;;;5006462;28;20072;-62
2024/04/04 09:00:43;;;;;;;3.42;1.20;;;11.30;99.90;;;;;;5002188;28;20071;-62
2024/04/04 09:03:09;;;;;;;3.97;1.00;;;11.30;99.90;;;;;;5005244;28;20029;-62
2024/04/04 09:05:35;;;;;;;3.95;0.90;;;11.20;99.90;;;;;;5009633;28;20458;-62
2024/04/04 09:08:04;;;;;;;2.55;1.00;;;11.20;99.90;;;;;;5008616;28;20034;-62
2024/04/04 09:10:32;;;;;;;2.83;0.90;;;11.20;99.90;;;;;;5006807;28;20030;-62
2024/04/04 09:13:08;;;;;;;3.28;1.00;;;11.20;99.90;;;;;;5005232;28;20365;-62
2024/04/04 09:15:39;;;;;;;3.85;1.00;;;11.20;99.90;;;;;;5004966;28;20037;-63
2024/04/04 09:18:06;;;;;;;2.42;1.00;;;11.20;99.90;;;;;;5004336;28;20030;-62
2024/04/04 09:20:32;;;;;;;3.85;1.17;;;11.30;99.90;;;;;;5004491;28;20033;-62
2024/04/04 09:23:02;;;;;;;2.95;1.15;;;11.40;99.90;;;;;;5003766;28;20153;-62
2024/04/04 09:25:29;;;;;;;3.53;1.10;;;11.50;99.90;;;;;;5004277;28;20524;-62
2024/04/04 09:27:54;;;;;;;3.13;1.20;;;11.60;99.90;;;;;;5007068;28;20047;-62
2024/04/04 09:30:24;;;;;;;3.08;1.10;;;11.80;99.90;;;;;;5004429;28;20026;-62
2024/04/04 09:32:54;;;;;;;4.15;1.40;;;11.80;99.90;;;;;;5002148;28;20038;-62
2024/04/04 09:35:21;;;;;;;5.07;1.48;;;11.90;99.90;;;;;;5001431;28;20148;-62
2024/04/04 09:37:47;;;;;;;3.03;0.77;;;12.10;99.90;;;;;;5007791;28;20026;-61
2024/04/04 09:40:15;;;;;;;2.75;0.70;;;12.30;99.90;;;;;;5001120;28;20389;-62
2024/04/04 09:42:42;;;;;;;1.50;0.80;;;12.40;99.90;;;;;;4998722;28;20023;-61
2024/04/04 09:45:12;;;;;;;1.05;0.70;;;12.40;99.90;;;;;;5006357;28;20405;-61
2024/04/04 09:47:45;;;;;;;1.75;0.70;;;12.40;99.90;;;;;;5004352;28;20069;-61
2024/04/04 09:50:13;;;;;;;2.00;0.80;;;12.50;99.90;;;;;;5008086;28;20100;-61
2024/04/04 09:52:39;;;;;;;1.33;0.60;;;12.70;99.90;;;;;;5002330;28;20057;-61
2024/04/04 09:55:13;;;;;;;0.60;0.60;;;13.10;99.90;;;;;;5008459;28;20045;-62
2024/04/04 09:57:40;;;;;;;0.50;0.50;;;13.40;99.90;;;;;;5004198;28;20049;-62
2024/04/04 10:00:17;;;;;;;1.73;0.70;;;13.40;99.90;;;;;;5006780;28;20018;-62
2024/04/04 10:02:50;;;;;;;2.45;0.70;;;13.30;99.90;;;;;;5005235;28;20036;-62
2024/04/04 10:05:19;;;;;;;0.68;0.60;;;13.10;99.90;;;;;;5007827;28;20025;-62
2024/04/04 10:07:47;;;;;;;1.50;0.80;;;12.90;99.90;;;;;;5002380;28;20030;-61
2024/04/04 10:10:15;;;;;;;2.72;0.85;;;12.80;99.90;;;;;;5001647;28;20489;-61
2024/04/04 10:12:45;;;;;;;4.75;0.90;;;12.80;99.90;;;;;;5004565;28;20048;-62
2024/04/04 10:15:15;;;;;;;;;;;12.80;99.90;;;;;;5009226;28;20811;-62
2024/04/04 10:17:44;;;;;;;2.58;0.80;;;13.10;99.90;;;;;;5005897;28;19920;-62
2024/04/04 10:20:10;;;;;;;3.10;0.90;;;13.50;99.90;;;;;;5004632;28;20369;-61
2024/04/04 10:22:36;;;;;;;1.75;0.80;;;13.80;99.90;;;;;;5008233;28;20448;-63
2024/04/04 10:25:04;;;;;;;1.58;0.60;;;14.30;99.90;;;;;;5006551;28;20096;-62
2024/04/04 10:27:30;;;;;;;2.15;0.80;;;14.90;99.90;;;;;;5007706;28;20030;-62
2024/04/04 10:29:56;;;;;;;2.53;0.80;;;15.00;99.90;;;;;;5000978;28;20081;-62
2024/04/04 10:32:22;;;;;;;2.78;0.88;;;14.70;99.90;;;;;;5006822;28;20046;-62
2024/04/04 10:35:01;;;;;;;3.58;0.90;;;14.40;99.90;;;;;;5007593;28;20025;-62
2024/04/04 10:37:27;;;;;;;3.70;1.30;;;14.10;99.90;;;;;;5003627;28;21661;-62
2024/04/04 10:39:53;;;;;;;3.60;1.10;;;14.00;99.90;;;;;;5002058;28;20238;-62
2024/04/04 10:42:22;;;;;;;3.10;0.90;;;13.80;99.90;;;;;;5002086;28;20079;-62
2024/04/04 10:44:54;;;;;;;4.50;0.90;;;13.70;99.90;;;;;;5004909;28;20013;-63
2024/04/04 10:47:21;;;;;;;3.60;1.00;;;13.60;99.90;;;;;;5002103;28;20033;-63
2024/04/04 10:49:46;;;;;;;2.17;0.80;;;13.60;99.90;;;;;;4993952;28;20029;-63
2024/04/04 10:52:14;;;;;;;5.10;1.00;;;13.60;99.90;;;;;;5005548;28;20038;-62
2024/04/04 10:54:40;;;;;;;3.13;1.02;;;13.60;99.90;;;;;;5007241;28;20045;-63
2024/04/04 10:57:08;;;;;;;4.10;1.00;;;13.80;99.90;;;;;;5002776;28;20041;-62
2024/04/04 10:59:34;;;;;;;5.68;1.17;;;13.90;99.90;;;;;;5000732;28;20029;-62
2024/04/04 11:02:07;;;;;;;1.80;0.70;;;14.00;99.90;;;;;;5000737;28;20044;-62
2024/04/04 11:04:33;;;;;;;3.42;0.95;;;14.20;99.90;;;;;;5003316;28;20629;-62
2024/04/04 11:06:58;;;;;;;2.28;0.80;;;14.40;99.90;;;;;;5005001;28;20061;-62
2024/04/04 11:09:26;;;;;;;3.08;0.90;;;14.50;99.90;;;;;;5003898;28;20096;-62
2024/04/04 11:11:56;;;;;;;4.78;0.90;;;14.50;99.90;;;;;;5003791;28;20026;-62
2024/04/04 11:14:24;;;;;;;2.25;0.80;;;14.60;99.90;;;;;;5003323;28;20030;-62
2024/04/04 11:16:54;;;;;;;3.85;0.98;;;14.60;99.90;;;;;;4996398;28;20037;-62
2024/04/04 11:19:22;;;;;;;;;;;14.40;99.90;;;;;;5007785;28;20033;-62
2024/04/04 11:21:49;;;;;;;2.22;0.80;;;14.30;99.90;;;;;;4999930;28;20335;-62
2024/04/04 11:24:16;;;;;;;2.53;0.73;;;14.30;99.90;;;;;;5005687;28;20034;-63
2024/04/04 11:26:44;;;;;;;4.97;1.20;;;14.30;99.90;;;;;;5002062;28;20030;-63
2024/04/04 11:29:09;;;;;;;5.07;0.93;;;14.10;99.90;;;;;;5008958;28;20033;-62
2024/04/04 11:31:35;;;;;;;4.45;1.10;;;14.10;99.90;;;;;;5001620;28;20072;-61
2024/04/04 11:34:03;;;;;;;2.17;0.93;;;14.20;99.90;;;;;;5000831;28;20191;-61
2024/04/04 11:36:30;;;;;;;1.65;0.70;;;14.30;99.90;;;;;;5003174;28;20438;-61
2024/04/04 11:38:56;;;;;;;2.08;0.90;;;14.40;99.90;;;;;;5005799;28;20533;-61
2024/04/04 11:41:23;;;;;;;2.80;0.90;;;14.40;99.90;;;;;;5002301;28;20105;-62
2024/04/04 11:43:48;;;;;;;5.32;1.00;;;14.40;99.90;;;;;;4999237;28;20030;-61
2024/04/04 11:46:15;;;;;;;2.28;0.90;;;14.40;99.90;;;;;;5002034;28;20026;-61
2024/04/04 11:48:41;;;;;;;4.47;0.90;;;14.40;99.90;;;;;;5008456;28;20384;-61
2024/04/04 11:51:11;;;;;;;4.57;1.30;;;14.50;99.90;;;;;;5007046;28;20030;-61
2024/04/04 11:53:36;;;;;;;3.95;0.80;;;14.70;99.90;;;;;;5002785;28;20503;-61
2024/04/04 11:56:02;;;;;;;2.60;0.82;;;14.70;99.90;;;;;;5001303;28;20025;-62
2024/04/04 11:58:29;;;;;;;2.80;1.08;;;14.50;99.90;;;;;;5003513;28;20041;-62
2024/04/04 12:00:55;;;;;;;2.70;0.93;;;14.30;99.90;;;;;;5003478;28;20022;-61
2024/04/04 12:03:21;;;;;;;4.15;1.00;;;14.20;99.90;;;;;;5000694;28;20492;-62
2024/04/04 12:05:46;;;;;;;3.08;0.88;;;14.30;99.90;;;;;;5006996;28;20029;-62
2024/04/04 12:08:12;;;;;;;3.22;1.00;;;14.50;99.90;;;;;;5005609;28;20503;-64
2024/04/04 12:10:43;;;;;;;3.28;0.88;;;14.50;99.90;;;;;;5002477;28;20038;-62
2024/04/04 12:13:10;;;;;;;5.43;1.10;;;14.50;99.90;;;;;;5005603;28;20172;-61
2024/04/04 12:15:36;;;;;;;3.20;1.17;;;14.40;99.90;;;;;;5002650;28;20073;-62
2024/04/04 12:20:46;;;;;;;2.90;1.15;;;14.40;99.90;;;;;;5005334;28;20114;-62
2024/04/04 12:23:11;;;;;;;2.63;0.90;;;14.30;99.90;;;;;;5013573;28;20113;-62
2024/04/04 12:25:37;;;;;;;3.50;0.93;;;14.20;99.90;;;;;;5005688;28;20041;-62
2024/04/04 12:28:02;;;;;;;2.83;0.90;;;14.00;99.90;;;;;;5010952;28;20468;-62
2024/04/04 12:30:28;;;;;;;3.75;0.90;;;14.20;99.90;;;;;;5009074;28;20030;-62
2024/04/04 12:32:54;;;;;;;2.40;0.85;;;14.10;99.90;;;;;;5008137;28;20045;-61
2024/04/04 12:35:21;;;;;;;8.93;1.02;;;14.10;99.90;;;;;;5009115;28;20091;-62
2024/04/04 12:37:47;;;;;;;3.50;0.93;;;14.00;99.90;;;;;;5005676;28;20357;-62
2024/04/04 12:40:16;;;;;;;2.33;1.10;;;13.90;99.90;;;;;;5003830;28;20033;-62
2024/04/04 12:42:41;;;;;;;2.75;1.00;;;13.80;99.90;;;;;;5002593;28;20030;-61
2024/04/04 12:45:07;;;;;;;4.53;1.13;;;13.80;99.90;;;;;;5001407;28;20485;-61
2024/04/04 12:47:33;;;;;;;1.38;0.70;;;13.80;99.90;;;;;;5001985;28;20040;-61
2024/04/04 12:49:58;;;;;;;3.97;0.88;;;13.80;99.90;;;;;;5002297;28;20034;-61